createdAt,value
2023-02-25T00:02:10.300Z,96436.13
2023-02-25T00:04:41.292Z,96436.25
2023-02-25T00:07:10.353Z,96452.97
2023-02-25T00:09:39.206Z,96460.84
2023-02-25T00:12:08.379Z,96450.53
2023-02-25T00:14:37.206Z,96461.88
2023-02-25T00:17:06.087Z,96459.72
2023-02-25T00:19:34.976Z,96459.03
2023-02-25T00:22:03.824Z,96454.69
2023-02-25T00:24:32.711Z,96449.72
2023-02-25T00:27:02.086Z,96445.72
2023-02-25T00:29:31.277Z,96447.78
2023-02-25T00:32:00.379Z,96450.97
2023-02-25T00:34:29.342Z,96434.56
2023-02-25T00:36:58.701Z,96423.63
2023-02-25T00:39:42.483Z,96415.47
2023-02-25T00:42:16.705Z,96407.88
2023-02-25T00:44:47.768Z,96404.38
2023-02-25T00:47:19.085Z,96391.06
2023-02-25T00:49:52.740Z,96384.34
2023-02-25T00:52:21.720Z,96385.63
2023-02-25T00:54:51.058Z,96373.50
2023-02-25T00:57:19.925Z,96378.31
2023-02-25T00:59:48.866Z,96372.00
2023-02-25T01:02:19.143Z,96382.19
2023-02-25T01:04:48.232Z,96389.16
2023-02-25T01:07:17.507Z,96378.63
2023-02-25T01:09:46.281Z,96383.69
2023-02-25T01:12:15.249Z,96370.66
2023-02-25T01:14:44.716Z,96367.44
2023-02-25T01:17:13.552Z,96371.53
2023-02-25T01:19:42.383Z,96362.41
2023-02-25T01:22:11.208Z,96363.16
2023-02-25T01:24:40.168Z,96377.47
2023-02-25T01:27:09.254Z,96381.56
2023-02-25T01:29:42.329Z,96373.25
2023-02-25T01:32:14.470Z,96376.72
2023-02-25T01:34:43.576Z,96371.50
2023-02-25T01:37:12.440Z,96378.59
2023-02-25T01:39:41.942Z,96377.88
2023-02-25T01:42:18.509Z,96375.25
2023-02-25T01:45:25.804Z,96382.97
2023-02-25T01:47:57.665Z,96394.41
2023-02-25T01:50:32.386Z,96388.34
2023-02-25T01:53:03.410Z,96391.78
2023-02-25T01:55:33.168Z,96390.84
2023-02-25T01:58:02.860Z,96393.69
2023-02-25T02:00:33.992Z,96386.72
2023-02-25T02:03:03.799Z,96380.19
2023-02-25T02:05:48.880Z,96376.84
2023-02-25T02:08:17.950Z,96371.41
2023-02-25T02:10:47.412Z,96373.09
2023-02-25T02:13:17.109Z,96371.81
2023-02-25T02:16:15.787Z,96368.88
2023-02-25T02:18:57.412Z,96372.63
2023-02-25T02:22:08.380Z,96355.16
2023-02-25T02:25:01.644Z,96336.94
2023-02-25T02:27:41.054Z,96332.69
2023-02-25T02:30:23.897Z,96339.53
2023-02-25T02:33:10.951Z,96333.00
2023-02-25T02:35:44.661Z,96331.97
2023-02-25T02:38:25.503Z,96324.69
2023-02-25T02:40:57.454Z,96322.81
2023-02-25T02:43:51.263Z,96305.78
2023-02-25T02:46:28.638Z,96305.50
2023-02-25T02:49:18.537Z,96309.13
2023-02-25T02:51:57.685Z,96315.91
2023-02-25T02:54:33.130Z,96315.94
2023-02-25T02:57:04.327Z,96296.63
2023-02-25T02:59:46.611Z,96308.28
2023-02-25T03:02:23.364Z,96307.53
2023-02-25T03:04:54.411Z,96313.09
2023-02-25T03:07:24.131Z,96311.09
2023-02-25T03:09:58.923Z,96305.94
2023-02-25T03:12:34.416Z,96289.91
2023-02-25T03:15:03.298Z,96314.53
2023-02-25T03:17:37.500Z,96319.44
2023-02-25T03:20:13.947Z,96326.97
2023-02-25T03:22:46.057Z,96332.50
2023-02-25T03:25:22.938Z,96326.59
2023-02-25T03:27:55.897Z,96327.38
2023-02-25T03:30:41.662Z,96333.09
2023-02-25T03:33:26.327Z,96317.72
2023-02-25T03:35:57.354Z,96313.03
2023-02-25T03:38:30.160Z,96305.91
2023-02-25T03:41:02.517Z,96302.28
2023-02-25T03:43:53.963Z,96294.13
2023-02-25T03:46:24.078Z,96289.25
2023-02-25T03:48:55.205Z,96288.22
2023-02-25T03:51:31.618Z,96282.69
2023-02-25T03:54:00.826Z,96291.69
2023-02-25T03:56:43.546Z,96279.31
2023-02-25T03:59:12.720Z,96288.13
2023-02-25T04:01:45.699Z,96285.63
2023-02-25T04:04:15.042Z,96286.34
2023-02-25T04:06:43.973Z,96287.94
2023-02-25T04:09:13.579Z,96295.03
2023-02-25T04:11:43.418Z,96290.44
2023-02-25T04:14:12.288Z,96286.44
2023-02-25T04:16:41.104Z,96266.19
2023-02-25T04:19:09.967Z,96275.53
2023-02-25T04:21:40.218Z,96274.00
2023-02-25T04:24:09.570Z,96270.91
2023-02-25T04:26:38.423Z,96275.16
2023-02-25T04:29:07.561Z,96273.19
2023-02-25T04:31:36.660Z,96283.75
2023-02-25T04:34:05.559Z,96272.59
2023-02-25T04:36:36.911Z,96268.81
2023-02-25T04:39:06.585Z,96274.31
2023-02-25T04:41:37.042Z,96270.97
2023-02-25T04:44:07.650Z,96276.47
2023-02-25T04:46:41.673Z,96268.13
2023-02-25T04:49:11.354Z,96253.38
2023-02-25T04:51:40.456Z,96254.47
2023-02-25T04:54:09.403Z,96252.09
2023-02-25T04:56:39.449Z,96247.75
2023-02-25T04:59:08.528Z,96239.19
2023-02-25T05:01:39.429Z,96242.34
2023-02-25T05:04:08.582Z,96243.00
2023-02-25T05:06:37.473Z,96234.22
2023-02-25T05:09:07.658Z,96234.88
2023-02-25T05:11:37.555Z,96225.06
2023-02-25T05:14:06.401Z,96230.88
2023-02-25T05:16:35.311Z,96234.81
2023-02-25T05:19:04.589Z,96225.72
2023-02-25T05:21:34.085Z,96225.41
2023-02-25T05:24:02.967Z,96224.94
2023-02-25T05:26:31.830Z,96216.47
2023-02-25T05:29:00.703Z,96208.97
2023-02-25T05:31:29.627Z,96211.00
2023-02-25T05:33:58.633Z,96212.41
2023-02-25T05:36:28.367Z,96215.53
2023-02-25T05:39:03.616Z,96212.38
2023-02-25T05:41:32.838Z,96212.00
2023-02-25T05:44:01.834Z,96201.28
2023-02-25T05:46:31.334Z,96199.94
2023-02-25T05:49:00.260Z,96197.84
2023-02-25T05:51:29.107Z,96190.19
2023-02-25T05:53:58.092Z,96169.59
2023-02-25T05:56:30.247Z,96183.00
2023-02-25T05:59:01.169Z,96174.28
2023-02-25T06:01:32.294Z,96172.47
2023-02-25T06:04:01.872Z,96180.59
2023-02-25T06:06:33.620Z,96184.75
2023-02-25T06:09:02.577Z,96183.31
2023-02-25T06:11:31.795Z,96184.72
2023-02-25T06:14:00.981Z,96167.13
2023-02-25T06:16:33.390Z,96174.59
2023-02-25T06:19:03.121Z,96176.28
2023-02-25T06:21:32.127Z,96172.44
2023-02-25T06:24:05.298Z,96152.66
2023-02-25T06:26:35.972Z,96155.31
2023-02-25T06:29:04.822Z,96164.50
2023-02-25T06:31:35.233Z,96139.25
2023-02-25T06:34:04.436Z,96134.00
2023-02-25T06:36:33.451Z,96108.97
2023-02-25T06:39:02.555Z,96140.56
2023-02-25T06:41:31.426Z,96136.69
2023-02-25T06:44:00.349Z,96147.50
2023-02-25T06:46:29.799Z,96135.03
2023-02-25T06:48:58.783Z,96145.81
2023-02-25T06:51:27.998Z,96154.72
2023-02-25T06:53:56.937Z,96143.00
2023-02-25T06:56:27.092Z,96139.31
2023-02-25T06:58:57.321Z,96143.97
2023-02-25T07:01:27.967Z,96155.22
2023-02-25T07:03:57.281Z,96146.97
2023-02-25T07:06:26.496Z,96144.63
2023-02-25T07:08:55.414Z,96142.50
2023-02-25T07:11:31.357Z,96140.09
2023-02-25T07:14:00.288Z,96128.22
2023-02-25T07:16:30.590Z,96132.66
2023-02-25T07:19:02.882Z,96133.59
2023-02-25T07:21:32.098Z,96126.41
2023-02-25T07:24:01.098Z,96125.16
2023-02-25T07:26:30.249Z,96121.53
2023-02-25T07:29:00.559Z,96123.97
2023-02-25T07:31:29.944Z,96140.84
2023-02-25T07:34:03.960Z,96135.34
2023-02-25T07:36:38.181Z,96142.84
2023-02-25T07:39:09.566Z,96143.88
2023-02-25T07:41:39.101Z,96154.25
2023-02-25T07:44:08.391Z,96147.22
2023-02-25T07:46:37.705Z,96142.19
2023-02-25T07:49:06.615Z,96139.50
2023-02-25T07:51:35.714Z,96132.66
2023-02-25T07:54:04.890Z,96124.09
2023-02-25T07:56:33.846Z,96128.31
2023-02-25T07:59:02.756Z,96125.75
2023-02-25T08:01:35.448Z,96125.94
2023-02-25T08:04:06.640Z,96120.00
2023-02-25T08:06:40.137Z,96126.59
2023-02-25T08:09:12.862Z,96127.34
2023-02-25T08:11:43.323Z,96121.78
2023-02-25T08:14:12.884Z,96113.16
2023-02-25T08:16:41.736Z,96101.91
2023-02-25T08:19:10.596Z,96109.47
2023-02-25T08:21:41.063Z,96102.75
2023-02-25T08:24:10.151Z,96103.13
2023-02-25T08:26:39.757Z,96092.97
2023-02-25T08:29:08.649Z,96103.50
2023-02-25T08:31:37.644Z,96102.88
2023-02-25T08:34:06.739Z,96102.97
2023-02-25T08:36:36.833Z,96090.28
2023-02-25T08:39:06.012Z,96091.66
2023-02-25T08:41:34.953Z,96079.63
2023-02-25T08:44:04.828Z,96083.28
2023-02-25T08:46:38.267Z,96084.38
2023-02-25T08:49:07.661Z,96081.41
2023-02-25T08:51:36.534Z,96084.25
2023-02-25T08:54:11.822Z,96077.50
2023-02-25T08:56:48.113Z,96092.72
2023-02-25T08:59:17.805Z,96088.94
2023-02-25T09:01:47.549Z,96084.38
2023-02-25T09:04:23.493Z,96070.19
2023-02-25T09:06:54.696Z,96057.72
2023-02-25T09:09:23.728Z,96072.78
2023-02-25T09:11:53.815Z,96055.56
2023-02-25T09:14:23.575Z,96060.66
2023-02-25T09:16:52.503Z,96051.06
2023-02-25T09:19:21.573Z,96056.41
2023-02-25T09:21:50.849Z,96057.56
2023-02-25T09:24:19.881Z,96047.59
2023-02-25T09:26:48.977Z,96048.19
2023-02-25T09:29:17.910Z,96054.63
2023-02-25T09:31:46.982Z,96049.63
2023-02-25T09:34:15.952Z,96056.19
2023-02-25T09:36:45.302Z,96056.50
2023-02-25T09:39:14.308Z,96047.47
2023-02-25T09:42:01.774Z,96044.63
2023-02-25T09:44:37.058Z,96030.69
2023-02-25T09:47:21.386Z,96043.38
2023-02-25T09:50:06.949Z,96047.34
2023-02-25T09:53:05.798Z,96052.38
2023-02-25T09:55:34.596Z,96056.19
2023-02-25T09:58:12.527Z,96051.50
2023-02-25T10:00:46.639Z,96048.16
2023-02-25T10:03:40.294Z,96043.16
2023-02-25T10:06:37.536Z,96034.50
2023-02-25T10:09:21.447Z,96039.34
2023-02-25T10:12:07.265Z,96035.50
2023-02-25T10:14:50.435Z,96039.81
2023-02-25T10:17:43.951Z,96044.03
2023-02-25T10:20:40.181Z,96042.38
2023-02-25T10:23:39.947Z,96048.66
2023-02-25T10:26:23.192Z,96051.22
2023-02-25T10:29:01.419Z,96054.84
2023-02-25T10:31:32.619Z,96051.91
2023-02-25T10:34:26.527Z,96056.59
2023-02-25T10:36:58.828Z,96061.31
2023-02-25T10:39:29.367Z,96053.88
2023-02-25T10:41:58.858Z,96044.34
2023-02-25T10:44:27.749Z,96051.13
2023-02-25T10:47:07.737Z,96045.31
2023-02-25T10:49:38.969Z,96050.53
2023-02-25T10:52:20.615Z,96059.16
2023-02-25T10:54:52.270Z,96063.19
2023-02-25T10:57:29.218Z,96060.91
2023-02-25T11:00:02.391Z,96065.84
2023-02-25T11:02:39.920Z,96053.28
2023-02-25T11:05:33.455Z,96059.72
2023-02-25T11:08:03.025Z,96048.53
2023-02-25T11:10:31.949Z,96053.44
2023-02-25T11:13:04.109Z,96056.09
2023-02-25T11:15:45.164Z,96056.88
2023-02-25T11:18:30.452Z,96053.84
2023-02-25T11:21:03.781Z,96051.91
2023-02-25T11:23:40.911Z,96047.84
2023-02-25T11:26:15.538Z,96055.81
2023-02-25T11:28:50.500Z,96055.81
2023-02-25T11:31:19.704Z,96057.28
2023-02-25T11:34:01.804Z,96054.66
2023-02-25T11:36:36.845Z,96048.84
2023-02-25T11:39:18.856Z,96055.53
2023-02-25T11:41:50.281Z,96057.09
2023-02-25T11:44:24.416Z,96067.88
2023-02-25T11:47:23.469Z,96061.22
2023-02-25T11:50:20.618Z,96064.84
2023-02-25T11:53:04.354Z,96067.97
2023-02-25T11:55:51.568Z,96067.19
2023-02-25T11:58:42.068Z,96074.94
2023-02-25T12:01:29.550Z,96083.56
2023-02-25T12:04:26.809Z,96085.53
2023-02-25T12:07:25.481Z,96078.78
2023-02-25T12:10:25.767Z,96085.72
2023-02-25T12:13:25.159Z,96091.41
2023-02-25T12:16:12.612Z,96093.84
2023-02-25T12:19:04.396Z,96100.50
2023-02-25T12:22:13.429Z,96081.66
2023-02-25T12:24:45.078Z,96082.88
2023-02-25T12:27:37.966Z,96096.31
2023-02-25T12:30:39.360Z,96088.38
2023-02-25T12:33:34.397Z,96084.06
2023-02-25T12:36:18.968Z,96094.84
2023-02-25T12:39:19.581Z,96078.19
2023-02-25T12:42:01.148Z,96071.50
2023-02-25T12:45:03.934Z,96077.28
2023-02-25T12:48:05.935Z,96065.31
2023-02-25T12:50:56.113Z,96064.03
2023-02-25T12:53:43.195Z,96059.84
2023-02-25T12:56:37.280Z,96059.13
2023-02-25T12:59:30.699Z,96079.06
2023-02-25T13:02:19.468Z,96080.69
2023-02-25T13:05:08.677Z,96081.28
2023-02-25T13:07:58.740Z,96083.75
2023-02-25T13:10:38.665Z,96085.13
2023-02-25T13:13:10.636Z,96086.19
2023-02-25T13:16:13.892Z,96082.78
2023-02-25T13:19:19.758Z,96084.31
2023-02-25T13:22:01.101Z,96086.97
2023-02-25T13:24:41.882Z,96078.47
2023-02-25T13:27:42.265Z,96089.84
2023-02-25T13:30:42.095Z,96082.19
2023-02-25T13:33:38.721Z,96084.03
2023-02-25T13:36:13.334Z,96075.81
2023-02-25T13:38:47.809Z,96077.66
2023-02-25T13:41:22.707Z,96083.53
2023-02-25T13:43:57.560Z,96090.22
2023-02-25T13:46:43.877Z,96100.59
2023-02-25T13:49:37.112Z,96087.63
2023-02-25T13:52:28.490Z,96100.88
2023-02-25T13:55:16.468Z,96090.78
2023-02-25T13:58:15.264Z,96097.66
2023-02-25T14:00:56.710Z,96097.38
2023-02-25T14:04:02.543Z,96087.97
2023-02-25T14:10:13.288Z,96096.81
2023-02-25T14:13:13.079Z,96093.56
2023-02-25T14:16:08.376Z,96093.09
2023-02-25T14:18:37.215Z,96105.34
2023-02-25T14:21:34.653Z,96103.84
2023-02-25T14:24:24.951Z,96100.31
2023-02-25T14:27:25.944Z,96099.78
2023-02-25T14:30:12.708Z,96104.84
2023-02-25T14:32:41.312Z,96110.66
2023-02-25T14:36:02.578Z,96112.50
2023-02-25T14:38:50.772Z,96117.91
2023-02-25T14:41:53.589Z,96121.97
2023-02-25T14:44:32.984Z,96107.94
2023-02-25T14:47:15.366Z,96097.16
2023-02-25T14:50:03.025Z,96103.22
2023-02-25T14:52:56.039Z,96115.97
2023-02-25T14:55:50.573Z,96114.09
2023-02-25T14:58:39.591Z,96109.47
2023-02-25T15:01:34.905Z,96115.19
2023-02-25T15:04:36.288Z,96127.34
2023-02-25T15:07:17.310Z,96141.34
2023-02-25T15:10:08.482Z,96127.34
2023-02-25T15:12:53.312Z,96116.28
2023-02-25T15:15:41.121Z,96119.09
2023-02-25T15:18:22.586Z,96106.69
2023-02-25T15:20:51.866Z,96111.69
2023-02-25T15:23:21.727Z,96121.38
2023-02-25T15:26:22.452Z,96124.25
2023-02-25T15:28:53.452Z,96121.63
2023-02-25T15:31:31.756Z,96119.44
2023-02-25T15:34:22.111Z,96119.97
2023-02-25T15:37:10.773Z,96116.50
2023-02-25T15:39:42.873Z,96121.25
2023-02-25T15:42:13.458Z,96123.31
2023-02-25T15:44:43.855Z,96121.66
2023-02-25T15:47:23.297Z,96115.47
2023-02-25T15:49:53.116Z,96109.13
2023-02-25T15:52:55.045Z,96112.66
2023-02-25T15:55:35.659Z,96109.66
2023-02-25T15:58:24.492Z,96111.63
2023-02-25T16:00:58.744Z,96118.13
2023-02-25T16:03:47.997Z,96099.97
2023-02-25T16:06:30.562Z,96103.00
2023-02-25T16:09:05.939Z,96110.88
2023-02-25T16:11:49.883Z,96100.97
2023-02-25T16:14:25.684Z,96088.69
2023-02-25T16:17:26.292Z,96099.19
2023-02-25T16:19:59.792Z,96098.31
2023-02-25T16:22:29.915Z,96093.81
2023-02-25T16:25:02.400Z,96104.03
2023-02-25T16:27:50.968Z,96098.13
2023-02-25T16:30:45.610Z,96109.19
2023-02-25T16:33:45.361Z,96122.16
2023-02-25T16:36:22.687Z,96108.72
2023-02-25T16:39:17.435Z,96121.69
2023-02-25T16:41:46.764Z,96112.75
2023-02-25T16:44:30.704Z,96114.78
2023-02-25T16:46:59.985Z,96116.38
2023-02-25T16:49:38.865Z,96119.81
2023-02-25T16:52:08.860Z,96112.66
2023-02-25T16:54:40.705Z,96117.94
2023-02-25T16:57:27.042Z,96112.06
2023-02-25T17:00:23.737Z,96113.94
2023-02-25T17:02:59.328Z,96101.16
2023-02-25T17:05:37.885Z,96134.03
2023-02-25T17:08:15.129Z,96133.25
2023-02-25T17:10:47.829Z,96126.38
2023-02-25T17:13:30.100Z,96122.75
2023-02-25T17:16:04.887Z,96129.84
2023-02-25T17:18:43.038Z,96133.06
2023-02-25T17:21:24.066Z,96130.91
2023-02-25T17:23:54.241Z,96130.09
2023-02-25T17:26:23.679Z,96134.03
2023-02-25T17:28:56.316Z,96134.34
2023-02-25T17:31:27.961Z,96138.06
2023-02-25T17:34:04.685Z,96140.53
2023-02-25T17:36:39.918Z,96141.00
2023-02-25T17:39:15.022Z,96143.97
2023-02-25T17:41:44.660Z,96147.22
2023-02-25T17:44:43.169Z,96147.50
2023-02-25T17:47:19.692Z,96147.81
2023-02-25T17:49:49.443Z,96144.16
2023-02-25T17:52:25.218Z,96144.16
2023-02-25T17:55:21.772Z,96154.78
2023-02-25T17:57:50.339Z,96152.97
2023-02-25T18:00:25.207Z,96155.44
2023-02-25T18:03:12.924Z,96169.25
2023-02-25T18:06:00.273Z,96176.75
2023-02-25T18:08:51.524Z,96175.94
2023-02-25T18:11:33.606Z,96174.09
2023-02-25T18:14:34.766Z,96193.13
2023-02-25T18:17:23.205Z,96182.34
2023-02-25T18:19:52.948Z,96185.84
2023-02-25T18:22:31.939Z,96186.94
2023-02-25T18:25:04.287Z,96194.88
2023-02-25T18:27:38.209Z,96196.53
2023-02-25T18:30:27.813Z,96198.69
2023-02-25T18:32:59.854Z,96204.56
2023-02-25T18:35:30.536Z,96203.28
2023-02-25T18:38:01.055Z,96190.91
2023-02-25T18:40:36.977Z,96194.66
2023-02-25T18:43:06.214Z,96198.66
2023-02-25T18:45:35.576Z,96202.66
2023-02-25T18:48:04.494Z,96192.66
2023-02-25T18:50:34.595Z,96199.63
2023-02-25T18:53:03.715Z,96202.03
2023-02-25T18:55:34.728Z,96204.28
2023-02-25T18:58:05.392Z,96206.13
2023-02-25T19:00:36.477Z,96210.94
2023-02-25T19:03:08.630Z,96218.66
2023-02-25T19:05:38.484Z,96235.06
2023-02-25T19:08:13.834Z,96228.47
2023-02-25T19:10:44.685Z,96220.00
2023-02-25T19:13:20.310Z,96216.44
2023-02-25T19:15:49.263Z,96217.03
2023-02-25T19:18:18.129Z,96223.38
2023-02-25T19:20:47.039Z,96224.75
2023-02-25T19:23:18.151Z,96232.47
2023-02-25T19:25:49.118Z,96239.91
2023-02-25T19:28:17.903Z,96242.56
2023-02-25T19:30:46.771Z,96239.41
2023-02-25T19:33:16.286Z,96248.41
2023-02-25T19:35:45.280Z,96260.59
2023-02-25T19:38:17.338Z,96268.53
2023-02-25T19:40:47.471Z,96267.66
2023-02-25T19:43:17.599Z,96271.13
2023-02-25T19:45:47.754Z,96278.72
2023-02-25T19:48:16.556Z,96281.13
2023-02-25T19:50:45.362Z,96283.47
2023-02-25T19:53:14.116Z,96287.91
2023-02-25T19:55:44.561Z,96279.97
2023-02-25T19:58:13.314Z,96283.72
2023-02-25T20:00:46.723Z,96273.13
2023-02-25T20:03:16.288Z,96285.00
2023-02-25T20:05:45.452Z,96278.13
2023-02-25T20:08:14.285Z,96299.50
2023-02-25T20:10:44.404Z,96300.09
2023-02-25T20:13:13.283Z,96300.88
2023-02-25T20:15:42.202Z,96316.44
2023-02-25T20:18:11.009Z,96313.78
2023-02-25T20:20:42.632Z,96318.56
2023-02-25T20:23:12.100Z,96323.78
2023-02-25T20:25:40.906Z,96333.56
2023-02-25T20:28:09.728Z,96330.66
2023-02-25T20:30:39.306Z,96341.75
2023-02-25T20:33:08.064Z,96334.56
2023-02-25T20:35:37.159Z,96340.97
2023-02-25T20:38:05.846Z,96334.88
2023-02-25T20:40:34.806Z,96344.16
2023-02-25T20:43:03.862Z,96348.19
2023-02-25T20:45:33.186Z,96359.78
2023-02-25T20:48:02.275Z,96342.38
2023-02-25T20:50:31.804Z,96349.81
2023-02-25T20:53:00.846Z,96344.31
2023-02-25T20:55:29.928Z,96334.06
2023-02-25T20:57:58.912Z,96345.78
2023-02-25T21:00:28.602Z,96350.56
2023-02-25T21:02:57.773Z,96353.78
2023-02-25T21:05:26.577Z,96348.56
2023-02-25T21:07:55.419Z,96355.91
2023-02-25T21:10:25.363Z,96355.91
2023-02-25T21:12:54.163Z,96349.34
2023-02-25T21:15:22.931Z,96355.44
2023-02-25T21:17:51.749Z,96363.13
2023-02-25T21:20:20.621Z,96373.97
2023-02-25T21:22:49.556Z,96376.09
2023-02-25T21:25:18.505Z,96371.84
2023-02-25T21:27:47.420Z,96384.78
2023-02-25T21:30:16.884Z,96383.78
2023-02-25T21:32:45.725Z,96377.75
2023-02-25T21:35:14.412Z,96387.03
2023-02-25T21:37:43.431Z,96395.78
2023-02-25T21:40:13.018Z,96394.50
2023-02-25T21:42:41.809Z,96398.81
2023-02-25T21:45:11.181Z,96402.59
2023-02-25T21:47:39.978Z,96392.59
2023-02-25T21:50:10.144Z,96398.72
2023-02-25T21:52:38.972Z,96400.09
2023-02-25T21:55:08.578Z,96418.72
2023-02-25T21:57:38.984Z,96423.75
2023-02-25T22:00:11.752Z,96429.31
2023-02-25T22:02:43.543Z,96429.06
2023-02-25T22:05:12.485Z,96443.13
2023-02-25T22:07:41.286Z,96448.16
2023-02-25T22:10:11.364Z,96443.19
2023-02-25T22:12:40.729Z,96459.84
2023-02-25T22:15:10.440Z,96459.84
2023-02-25T22:17:39.428Z,96455.06
2023-02-25T22:20:09.113Z,96462.97
2023-02-25T22:22:38.647Z,96476.44
2023-02-25T22:25:07.688Z,96480.16
2023-02-25T22:27:36.612Z,96487.31
2023-02-25T22:30:05.936Z,96487.06
2023-02-25T22:32:38.216Z,96478.38
2023-02-25T22:35:08.424Z,96488.09
2023-02-25T22:37:37.239Z,96477.31
2023-02-25T22:40:06.820Z,96494.69
2023-02-25T22:42:35.644Z,96503.72
2023-02-25T22:45:04.749Z,96498.44
2023-02-25T22:47:33.552Z,96505.84
2023-02-25T22:50:02.399Z,96516.94
2023-02-25T22:52:31.756Z,96527.25
2023-02-25T22:55:00.544Z,96529.94
2023-02-25T22:57:29.363Z,96533.66
2023-02-25T22:59:58.295Z,96546.06
2023-02-25T23:02:27.944Z,96556.13
2023-02-25T23:04:56.978Z,96560.13
2023-02-25T23:07:25.853Z,96561.44
2023-02-25T23:09:54.648Z,96566.97
2023-02-25T23:12:23.407Z,96570.94
2023-02-25T23:14:52.165Z,96567.81
2023-02-25T23:17:20.977Z,96574.13
2023-02-25T23:19:50.125Z,96562.78
2023-02-25T23:22:25.669Z,96566.72
2023-02-25T23:24:54.522Z,96573.59
2023-02-25T23:27:23.514Z,96572.81
2023-02-25T23:29:52.588Z,96572.56
2023-02-25T23:32:21.520Z,96584.22
2023-02-25T23:34:50.394Z,96584.72
2023-02-25T23:37:19.379Z,96588.19
2023-02-25T23:39:48.224Z,96595.84
2023-02-25T23:42:17.131Z,96603.25
2023-02-25T23:44:45.921Z,96598.78
2023-02-25T23:47:14.927Z,96608.81
2023-02-25T23:49:43.752Z,96617.25
2023-02-25T23:52:12.634Z,96626.53
2023-02-25T23:54:41.536Z,96636.53
2023-02-25T23:57:10.605Z,96635.47
2023-02-25T23:59:39.473Z,96637.34
